createdAt,value
2023-03-13T00:00:33.218Z,9.00
2023-03-13T00:03:03.979Z,8.90
2023-03-13T00:05:37.909Z,8.70
2023-03-13T00:08:08.808Z,9.30
2023-03-13T00:10:40.847Z,9.30
2023-03-13T00:13:11.597Z,9.60
2023-03-13T00:15:42.251Z,9.30
2023-03-13T00:18:13.189Z,8.50
2023-03-13T00:20:43.892Z,8.60
2023-03-13T00:23:14.601Z,8.90
2023-03-13T00:25:45.355Z,9.20
2023-03-13T00:28:16.090Z,9.10
2023-03-13T00:30:46.829Z,8.60
2023-03-13T00:33:17.567Z,7.50
2023-03-13T00:35:48.374Z,8.70
2023-03-13T00:38:19.572Z,8.40
2023-03-13T00:40:50.274Z,8.70
2023-03-13T00:43:21.021Z,8.30
2023-03-13T00:45:51.856Z,8.30
2023-03-13T00:48:22.693Z,8.10
2023-03-13T00:50:53.700Z,7.40
2023-03-13T00:53:24.797Z,8.10
2023-03-13T00:56:00.687Z,6.50
2023-03-13T00:58:34.474Z,7.20
2023-03-13T01:01:12.020Z,6.90
2023-03-13T01:03:44.478Z,8.00
2023-03-13T01:06:17.554Z,6.30
2023-03-13T01:08:48.856Z,7.10
2023-03-13T01:11:23.539Z,6.70
2023-03-13T01:13:57.110Z,6.80
2023-03-13T01:16:30.891Z,7.00
2023-03-13T01:19:03.608Z,7.20
2023-03-13T01:21:34.471Z,7.10
2023-03-13T01:24:05.416Z,7.10
2023-03-13T01:26:36.662Z,6.10
2023-03-13T01:29:07.464Z,7.40
2023-03-13T01:31:38.950Z,6.80
2023-03-13T01:34:12.967Z,6.20
2023-03-13T01:36:43.906Z,6.40
2023-03-13T01:39:15.182Z,6.10
2023-03-13T01:41:45.931Z,5.60
2023-03-13T01:44:25.097Z,6.50
2023-03-13T01:46:57.009Z,5.80
2023-03-13T01:49:33.366Z,5.70
2023-03-13T01:52:09.700Z,5.70
2023-03-13T01:54:51.230Z,6.90
2023-03-13T01:57:27.610Z,6.10
2023-03-13T02:00:01.724Z,6.60
2023-03-13T02:02:33.182Z,6.20
2023-03-13T02:05:08.124Z,6.50
2023-03-13T02:07:42.818Z,5.10
2023-03-13T02:10:18.057Z,5.80
2023-03-13T02:15:22.265Z,5.90
2023-03-13T02:17:54.716Z,6.10
2023-03-13T02:20:26.028Z,7.20
2023-03-13T02:23:02.117Z,6.70
2023-03-13T02:25:43.172Z,5.40
2023-03-13T02:28:17.951Z,6.60
2023-03-13T02:30:52.431Z,7.80
2023-03-13T02:33:27.481Z,6.00
2023-03-13T02:35:58.935Z,6.80
2023-03-13T02:38:32.513Z,6.60
2023-03-13T02:41:06.198Z,7.50
2023-03-13T02:43:38.885Z,7.20
2023-03-13T02:46:13.935Z,8.10
2023-03-13T02:48:49.256Z,7.20
2023-03-13T02:51:24.699Z,6.90
2023-03-13T02:54:00.348Z,7.10
2023-03-13T02:56:35.014Z,7.50
2023-03-13T02:59:08.173Z,6.80
2023-03-13T03:01:40.512Z,7.30
2023-03-13T03:04:11.280Z,6.10
2023-03-13T03:06:42.022Z,7.20
2023-03-13T03:09:12.944Z,7.60
2023-03-13T03:11:44.058Z,7.10
2023-03-13T03:14:16.624Z,7.10
2023-03-13T03:16:49.281Z,8.20
2023-03-13T03:19:20.118Z,9.10
2023-03-13T03:21:51.091Z,5.90
2023-03-13T03:24:22.944Z,7.80
2023-03-13T03:26:53.840Z,7.80
2023-03-13T03:29:29.364Z,8.00
2023-03-13T03:32:00.303Z,8.20
2023-03-13T03:34:31.636Z,7.90
2023-03-13T03:37:03.435Z,7.70
2023-03-13T03:39:34.291Z,7.40
2023-03-13T03:42:05.536Z,7.70
2023-03-13T03:44:36.491Z,9.60
2023-03-13T03:47:07.827Z,9.90
2023-03-13T03:49:41.627Z,9.30
2023-03-13T03:52:13.893Z,8.70
2023-03-13T03:54:45.907Z,9.10
2023-03-13T03:57:17.106Z,8.40
2023-03-13T03:59:48.928Z,8.10
2023-03-13T04:02:20.004Z,8.60
2023-03-13T04:04:51.298Z,9.00
2023-03-13T04:07:26.443Z,8.90
2023-03-13T04:09:57.585Z,8.80
2023-03-13T04:12:38.851Z,9.00
2023-03-13T04:15:11.904Z,10.10
2023-03-13T04:17:42.885Z,8.20
2023-03-13T04:20:16.679Z,8.50
2023-03-13T04:22:47.538Z,8.90
2023-03-13T04:25:19.382Z,9.30
2023-03-13T04:27:52.063Z,9.90
2023-03-13T04:30:24.909Z,8.70
2023-03-13T04:33:22.075Z,10.50
2023-03-13T04:36:18.780Z,9.60
2023-03-13T04:39:16.324Z,7.10
2023-03-13T04:42:16.461Z,8.70
2023-03-13T04:44:58.510Z,9.10
2023-03-13T04:47:48.846Z,8.60
2023-03-13T04:50:34.693Z,8.70
2023-03-13T04:53:27.697Z,9.00
2023-03-13T04:56:42.366Z,9.70
2023-03-13T04:59:29.321Z,11.00
2023-03-13T05:02:02.892Z,10.30
2023-03-13T05:04:57.169Z,11.30
2023-03-13T05:07:35.508Z,10.70
2023-03-13T05:10:23.555Z,8.60
2023-03-13T05:13:27.149Z,10.50
2023-03-13T05:16:21.281Z,9.40
2023-03-13T05:19:18.616Z,10.50
2023-03-13T05:22:05.001Z,10.00
2023-03-13T05:24:54.697Z,9.10
2023-03-13T05:27:54.882Z,9.20
2023-03-13T05:30:37.600Z,10.00
2023-03-13T05:33:32.067Z,10.20
2023-03-13T05:36:21.260Z,11.90
2023-03-13T05:39:03.499Z,9.70
2023-03-13T05:41:49.982Z,10.80
2023-03-13T05:44:36.053Z,11.30
2023-03-13T05:47:39.694Z,9.20
2023-03-13T05:50:22.284Z,10.70
2023-03-13T05:53:13.819Z,11.20
2023-03-13T05:56:05.146Z,9.30
2023-03-13T05:58:51.082Z,8.90
2023-03-13T06:01:41.125Z,10.50
2023-03-13T06:04:17.678Z,12.90
2023-03-13T06:06:50.484Z,11.80
2023-03-13T06:09:22.609Z,11.50
2023-03-13T06:11:53.803Z,10.80
2023-03-13T06:14:24.681Z,8.10
2023-03-13T06:17:22.211Z,7.20
2023-03-13T06:19:52.976Z,10.40
2023-03-13T06:22:23.867Z,10.30
2023-03-13T06:24:54.814Z,12.30
2023-03-13T06:27:25.527Z,12.00
2023-03-13T06:29:56.248Z,16.40
2023-03-13T06:32:30.389Z,15.90
2023-03-13T06:35:01.219Z,12.70
2023-03-13T06:37:32.085Z,12.60
2023-03-13T06:40:05.258Z,12.20
2023-03-13T06:42:36.042Z,11.20
2023-03-13T06:45:09.430Z,10.50
2023-03-13T06:47:40.282Z,11.00
2023-03-13T06:50:12.688Z,11.60
2023-03-13T06:52:44.385Z,11.70
2023-03-13T06:55:15.944Z,12.00
2023-03-13T06:57:50.418Z,13.20
2023-03-13T07:00:23.010Z,17.80
2023-03-13T07:02:55.008Z,12.30
2023-03-13T07:05:26.314Z,11.70
2023-03-13T07:07:57.138Z,11.70
2023-03-13T07:10:27.884Z,10.20
2023-03-13T07:12:58.616Z,10.50
2023-03-13T07:15:29.370Z,12.90
2023-03-13T07:18:01.730Z,14.10
2023-03-13T07:20:34.204Z,14.50
2023-03-13T07:23:05.184Z,12.00
2023-03-13T07:25:35.908Z,10.70
2023-03-13T07:28:06.736Z,11.10
2023-03-13T07:30:37.541Z,10.10
2023-03-13T07:33:08.421Z,11.60
2023-03-13T07:35:40.258Z,10.40
2023-03-13T07:38:12.527Z,11.70
2023-03-13T07:40:48.253Z,11.80
2023-03-13T07:43:19.125Z,11.20
2023-03-13T07:45:57.878Z,12.80
2023-03-13T07:48:32.236Z,12.00
2023-03-13T07:51:03.466Z,10.20
2023-03-13T07:53:36.795Z,11.00
2023-03-13T07:56:11.333Z,9.60
2023-03-13T07:58:43.654Z,9.20
2023-03-13T08:01:16.555Z,8.90
2023-03-13T08:03:50.923Z,4.80
2023-03-13T08:06:24.625Z,9.50
2023-03-13T08:08:58.113Z,10.90
2023-03-13T08:11:30.277Z,12.80
2023-03-13T08:14:01.329Z,9.60
2023-03-13T08:16:34.966Z,11.20
2023-03-13T08:19:09.307Z,10.40
2023-03-13T08:21:41.105Z,20.10
2023-03-13T08:24:13.525Z,10.80
2023-03-13T08:26:45.215Z,9.90
2023-03-13T08:29:19.231Z,10.20
2023-03-13T08:31:52.761Z,9.30
2023-03-13T08:34:23.534Z,9.20
2023-03-13T08:36:54.332Z,9.00
2023-03-13T08:39:26.385Z,9.60
2023-03-13T08:41:57.381Z,8.70
2023-03-13T08:44:28.808Z,10.30
2023-03-13T08:47:00.071Z,9.40
2023-03-13T08:49:31.044Z,11.50
2023-03-13T08:52:02.008Z,9.90
2023-03-13T08:54:32.841Z,11.60
2023-03-13T08:57:03.577Z,10.90
2023-03-13T08:59:34.366Z,9.10
2023-03-13T09:02:06.968Z,9.30
2023-03-13T09:04:38.000Z,10.30
2023-03-13T09:07:08.916Z,10.10
2023-03-13T09:09:39.690Z,10.10
2023-03-13T09:12:24.803Z,9.20
2023-03-13T09:15:02.126Z,10.80
2023-03-13T09:17:33.152Z,10.10
2023-03-13T09:20:05.673Z,9.70
2023-03-13T09:22:36.542Z,7.90
2023-03-13T09:25:08.439Z,9.00
2023-03-13T09:27:39.571Z,9.00
2023-03-13T09:30:14.365Z,9.00
2023-03-13T09:32:46.061Z,8.00
2023-03-13T09:35:17.173Z,7.90
2023-03-13T09:37:49.080Z,7.20
2023-03-13T09:40:23.698Z,7.30
2023-03-13T09:42:57.791Z,6.40
2023-03-13T09:45:34.473Z,7.10
2023-03-13T09:48:13.290Z,6.30
2023-03-13T09:50:48.719Z,6.80
2023-03-13T09:53:28.702Z,5.80
2023-03-13T09:56:00.391Z,8.20
2023-03-13T09:58:35.430Z,5.80
2023-03-13T10:01:08.108Z,6.40
2023-03-13T10:03:59.115Z,6.80
2023-03-13T10:06:42.763Z,6.00
2023-03-13T10:09:27.131Z,6.10
2023-03-13T10:12:07.528Z,5.50
2023-03-13T10:14:46.631Z,5.90
2023-03-13T10:17:29.780Z,6.80
2023-03-13T10:20:10.908Z,6.20
2023-03-13T10:22:43.563Z,6.30
2023-03-13T10:25:28.760Z,5.10
2023-03-13T10:28:00.379Z,5.10
2023-03-13T10:30:35.023Z,4.90
2023-03-13T10:33:24.867Z,5.80
2023-03-13T10:36:11.201Z,5.60
2023-03-13T10:38:54.708Z,5.40
2023-03-13T10:41:34.733Z,5.50
2023-03-13T10:44:08.487Z,5.70
2023-03-13T10:46:47.421Z,5.60
2023-03-13T10:49:23.551Z,5.90
2023-03-13T10:51:56.381Z,7.80
2023-03-13T10:54:29.886Z,5.60
2023-03-13T10:57:32.166Z,5.10
2023-03-13T11:00:23.602Z,5.30
2023-03-13T11:02:56.123Z,5.70
2023-03-13T11:05:39.008Z,5.60
2023-03-13T11:08:25.883Z,9.10
2023-03-13T11:11:02.258Z,4.70
2023-03-13T11:13:38.263Z,5.30
2023-03-13T11:16:22.815Z,5.50
2023-03-13T11:19:09.582Z,5.30
2023-03-13T11:21:48.096Z,5.80
2023-03-13T11:24:28.998Z,5.40
2023-03-13T11:27:08.171Z,4.80
2023-03-13T11:29:49.871Z,5.10
2023-03-13T11:32:30.722Z,4.80
2023-03-13T11:35:08.039Z,4.60
2023-03-13T11:37:42.815Z,5.80
2023-03-13T11:40:22.644Z,4.60
2023-03-13T11:43:25.133Z,5.50
2023-03-13T11:46:21.310Z,4.50
2023-03-13T11:49:21.814Z,4.40
2023-03-13T11:52:03.414Z,4.40
2023-03-13T11:54:50.426Z,4.70
2023-03-13T11:57:31.167Z,5.70
2023-03-13T12:00:21.751Z,5.30
2023-03-13T12:02:57.272Z,4.00
2023-03-13T12:05:30.479Z,4.90
2023-03-13T12:08:09.214Z,6.00
2023-03-13T12:10:46.440Z,5.40
2023-03-13T12:13:21.591Z,4.50
2023-03-13T12:18:28.578Z,5.60
2023-03-13T12:21:04.543Z,4.80
2023-03-13T12:23:47.999Z,4.50
2023-03-13T12:26:21.330Z,4.90
2023-03-13T12:29:07.059Z,5.30
2023-03-13T12:31:43.431Z,4.40
2023-03-13T12:34:19.800Z,5.60
2023-03-13T12:36:55.294Z,9.10
2023-03-13T12:39:35.846Z,5.90
2023-03-13T12:42:24.791Z,4.70
2023-03-13T12:44:56.821Z,5.50
2023-03-13T12:47:35.172Z,5.20
2023-03-13T12:50:27.234Z,4.50
2023-03-13T12:53:19.146Z,5.50
2023-03-13T12:56:16.801Z,5.30
2023-03-13T12:58:52.228Z,4.60
2023-03-13T13:01:34.784Z,4.10
2023-03-13T13:04:09.271Z,4.90
2023-03-13T13:07:04.417Z,4.80
2023-03-13T13:09:36.847Z,5.00
2023-03-13T13:12:22.186Z,5.50
2023-03-13T13:15:13.271Z,5.20
2023-03-13T13:18:09.203Z,5.40
2023-03-13T13:20:46.872Z,4.60
2023-03-13T13:23:39.494Z,4.00
2023-03-13T13:26:47.484Z,5.30
2023-03-13T13:29:56.712Z,5.50
2023-03-13T13:32:48.141Z,4.30
2023-03-13T13:35:34.088Z,5.40
2023-03-13T13:38:36.671Z,5.10
2023-03-13T13:41:28.256Z,4.20
2023-03-13T13:44:27.216Z,4.70
2023-03-13T13:47:02.021Z,4.50
2023-03-13T13:49:54.740Z,4.40
2023-03-13T13:52:42.326Z,7.00
2023-03-13T13:55:44.340Z,5.80
2023-03-13T13:58:21.928Z,7.40
2023-03-13T14:00:56.906Z,6.00
2023-03-13T14:03:29.603Z,4.60
2023-03-13T14:06:04.442Z,10.30
2023-03-13T14:08:39.426Z,8.20
2023-03-13T14:11:24.455Z,4.50
2023-03-13T14:14:16.940Z,4.60
2023-03-13T14:16:50.410Z,4.30
2023-03-13T14:19:30.701Z,4.60
2023-03-13T14:22:04.241Z,4.90
2023-03-13T14:24:36.214Z,4.30
2023-03-13T14:27:17.591Z,4.50
2023-03-13T14:30:05.864Z,3.70
2023-03-13T14:32:36.941Z,4.40
2023-03-13T14:35:10.985Z,3.70
2023-03-13T14:37:45.401Z,3.90
2023-03-13T14:40:25.565Z,5.40
2023-03-13T14:42:58.702Z,3.90
2023-03-13T14:45:32.159Z,4.00
2023-03-13T14:48:06.846Z,4.40
2023-03-13T14:50:37.839Z,4.40
2023-03-13T14:53:18.477Z,4.10
2023-03-13T14:55:50.210Z,4.50
2023-03-13T14:58:30.690Z,4.20
2023-03-13T15:01:13.190Z,5.30
2023-03-13T15:03:47.590Z,4.30
2023-03-13T15:06:23.311Z,4.50
2023-03-13T15:09:15.504Z,4.50
2023-03-13T15:11:59.300Z,5.20
2023-03-13T15:14:39.750Z,4.00
2023-03-13T15:17:20.481Z,3.60
2023-03-13T15:19:57.003Z,4.00
2023-03-13T15:22:33.737Z,3.70
2023-03-13T15:25:06.976Z,3.40
2023-03-13T15:27:38.361Z,3.80
2023-03-13T15:30:13.563Z,4.50
2023-03-13T15:35:30.471Z,4.20
2023-03-13T15:38:02.964Z,3.90
2023-03-13T15:40:34.330Z,4.00
2023-03-13T15:43:05.180Z,4.20
2023-03-13T15:45:37.291Z,3.90
2023-03-13T15:48:16.289Z,4.50
2023-03-13T15:50:47.619Z,4.20
2023-03-13T15:53:24.011Z,4.20
2023-03-13T15:55:58.015Z,3.90
2023-03-13T15:58:30.568Z,3.80
2023-03-13T16:01:01.438Z,4.20
2023-03-13T16:03:32.287Z,3.10
2023-03-13T16:06:03.115Z,3.70
2023-03-13T16:08:36.091Z,4.20
2023-03-13T16:11:08.066Z,4.70
2023-03-13T16:13:38.757Z,4.40
2023-03-13T16:16:22.238Z,4.30
2023-03-13T16:18:53.992Z,3.90
2023-03-13T16:21:27.149Z,4.40
2023-03-13T16:23:58.826Z,4.60
2023-03-13T16:26:32.163Z,4.10
2023-03-13T16:29:04.310Z,5.20
2023-03-13T16:31:36.585Z,4.50
2023-03-13T16:34:08.233Z,4.40
2023-03-13T16:36:39.354Z,5.50
2023-03-13T16:39:14.396Z,5.20
2023-03-13T16:41:45.360Z,7.40
2023-03-13T16:44:16.210Z,6.50
2023-03-13T16:47:04.195Z,6.70
2023-03-13T16:49:35.971Z,4.90
2023-03-13T16:52:07.523Z,5.10
2023-03-13T16:54:38.499Z,4.90
2023-03-13T16:57:12.997Z,4.80
2023-03-13T16:59:44.171Z,4.80
2023-03-13T17:02:19.066Z,5.90
2023-03-13T17:05:16.149Z,6.00
2023-03-13T17:07:49.425Z,4.50
2023-03-13T17:10:23.549Z,6.20
2023-03-13T17:12:54.922Z,4.90
2023-03-13T17:15:27.106Z,5.70
2023-03-13T17:17:58.028Z,5.20
2023-03-13T17:20:30.972Z,5.00
2023-03-13T17:23:02.275Z,5.20
2023-03-13T17:25:33.332Z,5.30
2023-03-13T17:28:04.235Z,6.00
2023-03-13T17:30:36.555Z,5.40
2023-03-13T17:33:07.446Z,5.30
2023-03-13T17:35:38.463Z,4.60
2023-03-13T17:38:10.130Z,5.50
2023-03-13T17:40:41.850Z,6.50
2023-03-13T17:43:13.551Z,4.80
2023-03-13T17:45:44.634Z,5.00
2023-03-13T17:48:16.175Z,6.80
2023-03-13T17:50:47.809Z,5.70
2023-03-13T17:53:18.695Z,5.60
2023-03-13T17:55:49.530Z,6.00
2023-03-13T17:58:20.411Z,4.90
2023-03-13T18:00:51.323Z,4.60
2023-03-13T18:03:23.642Z,5.50
2023-03-13T18:05:56.003Z,5.10
2023-03-13T18:08:26.857Z,5.20
2023-03-13T18:11:01.554Z,5.10
2023-03-13T18:13:32.628Z,5.30
2023-03-13T18:16:03.693Z,5.70
2023-03-13T18:18:36.480Z,5.20
2023-03-13T18:21:10.306Z,4.90
2023-03-13T18:23:41.058Z,4.60
2023-03-13T18:26:31.307Z,6.10
2023-03-13T18:29:03.002Z,5.20
2023-03-13T18:31:36.716Z,5.20
2023-03-13T18:34:07.615Z,5.00
2023-03-13T18:36:39.731Z,4.90
2023-03-13T18:39:20.732Z,5.30
2023-03-13T18:41:54.563Z,5.10
2023-03-13T18:44:25.768Z,7.20
2023-03-13T18:46:56.491Z,8.50
2023-03-13T18:49:27.182Z,6.60
2023-03-13T18:51:57.981Z,5.50
2023-03-13T18:54:29.294Z,6.00
2023-03-13T18:57:11.720Z,5.20
2023-03-13T18:59:42.467Z,4.50
2023-03-13T19:02:18.047Z,5.60
2023-03-13T19:04:49.707Z,5.10
2023-03-13T19:07:25.841Z,6.00
2023-03-13T19:09:57.508Z,5.50
2023-03-13T19:12:29.476Z,4.50
2023-03-13T19:15:00.935Z,4.50
2023-03-13T19:17:32.378Z,5.20
2023-03-13T19:20:04.345Z,4.90
2023-03-13T19:22:35.306Z,5.00
2023-03-13T19:25:07.385Z,5.50
2023-03-13T19:27:40.683Z,5.10
2023-03-13T19:30:18.841Z,4.90
2023-03-13T19:32:50.176Z,5.50
2023-03-13T19:35:22.489Z,5.00
2023-03-13T19:37:53.590Z,6.20
2023-03-13T19:40:28.812Z,5.60
2023-03-13T19:42:59.890Z,5.60
2023-03-13T19:45:30.844Z,6.10
2023-03-13T19:48:02.716Z,6.40
2023-03-13T19:50:33.953Z,6.20
2023-03-13T19:53:05.058Z,5.00
2023-03-13T19:55:36.101Z,5.80
2023-03-13T19:58:07.739Z,5.60
2023-03-13T20:00:38.881Z,5.00
2023-03-13T20:03:10.030Z,6.20
2023-03-13T20:05:40.946Z,6.40
2023-03-13T20:08:12.428Z,4.90
2023-03-13T20:10:43.546Z,5.10
2023-03-13T20:13:14.553Z,5.20
2023-03-13T20:15:45.424Z,5.70
2023-03-13T20:18:16.254Z,5.30
2023-03-13T20:20:47.046Z,5.20
2023-03-13T20:23:17.932Z,5.30
2023-03-13T20:25:48.798Z,5.70
2023-03-13T20:28:36.525Z,5.10
2023-03-13T20:31:08.427Z,5.50
2023-03-13T20:33:40.443Z,5.40
2023-03-13T20:36:16.042Z,5.70
2023-03-13T20:38:47.027Z,6.10
2023-03-13T20:41:21.125Z,5.20
2023-03-13T20:43:52.434Z,5.80
2023-03-13T20:46:24.479Z,6.30
2023-03-13T20:48:56.819Z,5.60
2023-03-13T20:51:29.770Z,5.20
2023-03-13T20:54:00.728Z,5.50
2023-03-13T20:56:31.621Z,5.60
2023-03-13T20:59:02.433Z,5.70
2023-03-13T21:01:33.370Z,6.20
2023-03-13T21:04:04.403Z,5.20
2023-03-13T21:06:35.100Z,5.90
2023-03-13T21:09:06.464Z,8.10
2023-03-13T21:11:37.309Z,7.50
2023-03-13T21:14:08.030Z,5.80
2023-03-13T21:16:38.854Z,5.20
2023-03-13T21:19:09.624Z,5.30
2023-03-13T21:21:40.421Z,6.30
2023-03-13T21:24:12.611Z,5.50
2023-03-13T21:26:43.399Z,5.40
2023-03-13T21:29:14.170Z,5.40
2023-03-13T21:31:44.997Z,5.40
2023-03-13T21:34:15.799Z,5.80
2023-03-13T21:36:46.475Z,5.80
2023-03-13T21:39:17.248Z,6.00
2023-03-13T21:41:48.003Z,5.50
2023-03-13T21:44:19.668Z,6.40
2023-03-13T21:46:51.944Z,5.90
2023-03-13T21:49:23.043Z,6.00
2023-03-13T21:51:56.472Z,5.50
2023-03-13T21:54:27.783Z,5.30
2023-03-13T21:56:58.573Z,5.00
2023-03-13T21:59:30.538Z,5.60
2023-03-13T22:02:01.377Z,5.50
2023-03-13T22:04:32.513Z,5.20
2023-03-13T22:07:03.192Z,5.00
2023-03-13T22:09:34.063Z,5.30
2023-03-13T22:12:04.899Z,6.00
2023-03-13T22:14:35.879Z,4.90
2023-03-13T22:17:06.675Z,5.80
2023-03-13T22:19:37.593Z,6.20
2023-03-13T22:22:08.361Z,5.80
2023-03-13T22:24:39.744Z,5.10
2023-03-13T22:27:11.084Z,5.80
2023-03-13T22:29:42.277Z,6.30
2023-03-13T22:32:13.896Z,5.50
2023-03-13T22:34:47.275Z,5.80
2023-03-13T22:37:21.786Z,6.90
2023-03-13T22:39:54.038Z,6.10
2023-03-13T22:42:26.309Z,6.00
2023-03-13T22:44:57.148Z,7.60
2023-03-13T22:47:28.261Z,5.50
2023-03-13T22:49:59.908Z,6.40
2023-03-13T22:52:32.058Z,6.00
2023-03-13T22:55:02.947Z,5.90
2023-03-13T22:57:34.037Z,6.10
2023-03-13T23:00:10.038Z,6.10
2023-03-13T23:02:40.860Z,6.10
2023-03-13T23:05:13.664Z,7.00
2023-03-13T23:07:44.751Z,6.30
2023-03-13T23:10:15.648Z,6.30
2023-03-13T23:12:46.518Z,6.30
2023-03-13T23:15:17.906Z,6.40
2023-03-13T23:17:48.674Z,6.70
2023-03-13T23:20:19.796Z,5.80
2023-03-13T23:22:50.809Z,6.70
2023-03-13T23:25:23.143Z,6.00
2023-03-13T23:27:53.907Z,6.10
2023-03-13T23:30:24.707Z,5.90
2023-03-13T23:32:55.557Z,5.10
2023-03-13T23:35:26.358Z,6.00
2023-03-13T23:37:57.074Z,5.20
2023-03-13T23:40:28.369Z,6.00
2023-03-13T23:42:59.421Z,6.50
2023-03-13T23:45:30.329Z,6.60
2023-03-13T23:48:01.050Z,6.30
2023-03-13T23:50:32.143Z,6.40
2023-03-13T23:53:02.849Z,6.20
2023-03-13T23:55:34.030Z,5.70
2023-03-13T23:58:04.870Z,6.30
